createdAt,value
2023-03-06T00:01:49.067Z,99839.47
2023-03-06T00:04:51.778Z,99859.31
2023-03-06T00:07:54.121Z,99844.38
2023-03-06T00:10:57.817Z,99836.44
2023-03-06T00:14:00.173Z,99867.31
2023-03-06T00:17:02.879Z,99846.09
2023-03-06T00:20:06.947Z,99857.41
2023-03-06T00:23:11.194Z,99841.41
2023-03-06T00:26:13.708Z,99856.56
2023-03-06T00:29:16.836Z,99854.34
2023-03-06T00:32:19.938Z,99824.06
2023-03-06T00:35:22.712Z,99850.25
2023-03-06T00:38:27.629Z,99841.72
2023-03-06T00:41:31.420Z,99846.41
2023-03-06T00:44:33.786Z,99834.81
2023-03-06T00:47:37.667Z,99830.44
2023-03-06T00:50:40.045Z,99844.47
2023-03-06T00:53:42.842Z,99847.50
2023-03-06T00:56:45.161Z,99836.50
2023-03-06T00:59:48.097Z,99834.56
2023-03-06T01:02:50.750Z,99827.97
2023-03-06T01:05:53.440Z,99811.16
2023-03-06T01:08:55.804Z,99806.22
2023-03-06T01:12:00.784Z,99822.75
2023-03-06T01:15:04.554Z,99821.34
2023-03-06T01:18:07.223Z,99811.72
2023-03-06T01:21:12.536Z,99811.44
2023-03-06T01:24:15.151Z,99806.22
2023-03-06T01:27:17.462Z,99782.81
2023-03-06T01:30:20.626Z,99807.88
2023-03-06T01:33:23.026Z,99800.97
2023-03-06T01:36:25.733Z,99781.72
2023-03-06T01:39:28.824Z,99810.09
2023-03-06T01:42:32.246Z,99803.72
2023-03-06T01:45:34.613Z,99798.78
2023-03-06T01:48:37.258Z,99799.03
2023-03-06T01:51:51.509Z,99797.41
2023-03-06T01:55:00.611Z,99796.88
2023-03-06T01:58:16.905Z,99790.78
2023-03-06T02:01:20.142Z,99794.66
2023-03-06T02:04:23.644Z,99796.88
2023-03-06T02:07:26.605Z,99771.25
2023-03-06T02:10:29.614Z,99802.66
2023-03-06T02:13:32.415Z,99794.41
2023-03-06T02:16:35.396Z,99799.09
2023-03-06T02:19:59.542Z,99800.47
2023-03-06T02:23:39.435Z,99775.13
2023-03-06T02:26:43.764Z,99788.63
2023-03-06T02:29:47.323Z,99783.69
2023-03-06T02:32:50.181Z,99777.59
2023-03-06T02:35:58.866Z,99789.19
2023-03-06T02:39:01.758Z,99784.22
2023-03-06T02:42:04.700Z,99788.34
2023-03-06T02:45:10.816Z,99785.31
2023-03-06T02:48:15.238Z,99773.78
2023-03-06T02:51:17.730Z,99775.41
2023-03-06T02:54:20.350Z,99799.06
2023-03-06T02:57:22.846Z,99796.03
2023-03-06T03:00:25.906Z,99808.16
2023-03-06T03:03:29.229Z,99778.72
2023-03-06T03:06:33.254Z,99798.25
2023-03-06T03:09:37.222Z,99798.81
2023-03-06T03:12:40.143Z,99769.09
2023-03-06T03:15:42.602Z,99788.91
2023-03-06T03:18:47.821Z,99787.53
2023-03-06T03:21:50.920Z,99788.06
2023-03-06T03:24:56.389Z,99752.31
2023-03-06T03:27:58.789Z,99792.47
2023-03-06T03:31:06.728Z,99756.69
2023-03-06T03:34:09.572Z,99778.72
2023-03-06T03:37:12.536Z,99777.63
2023-03-06T03:40:17.388Z,99772.37
2023-03-06T03:43:20.286Z,99774.59
2023-03-06T03:46:22.800Z,99780.91
2023-03-06T03:49:25.960Z,99749.53
2023-03-06T03:52:28.607Z,99747.91
2023-03-06T03:55:31.746Z,99772.66
2023-03-06T03:58:34.619Z,99766.03
2023-03-06T04:01:39.537Z,99748.44
2023-03-06T04:04:43.121Z,99775.13
2023-03-06T04:07:46.785Z,99771.28
2023-03-06T04:10:51.333Z,99768.81
2023-03-06T04:13:53.647Z,99773.75
2023-03-06T04:16:56.343Z,99752.00
2023-03-06T04:19:58.818Z,99762.22
2023-03-06T04:23:01.762Z,99771.81
2023-03-06T04:26:04.621Z,99781.19
2023-03-06T04:29:08.550Z,99761.66
2023-03-06T04:32:11.099Z,99753.94
2023-03-06T04:35:14.922Z,99754.75
2023-03-06T04:38:17.602Z,99765.50
2023-03-06T04:41:20.937Z,99772.94
2023-03-06T04:44:23.359Z,99769.91
2023-03-06T04:47:26.095Z,99769.91
2023-03-06T04:50:32.524Z,99771.84
2023-03-06T04:53:35.248Z,99763.84
2023-03-06T04:56:37.619Z,99743.75
2023-03-06T04:59:40.320Z,99769.09
2023-03-06T05:02:44.313Z,99746.22
2023-03-06T05:05:47.074Z,99755.34
2023-03-06T05:08:49.481Z,99765.78
2023-03-06T05:11:52.319Z,99760.28
2023-03-06T05:14:54.630Z,99763.84
2023-03-06T05:17:57.317Z,99749.28
2023-03-06T05:21:00.199Z,99766.06
2023-03-06T05:24:02.965Z,99763.03
2023-03-06T05:27:05.338Z,99747.88
2023-03-06T05:30:11.967Z,99771.56
2023-03-06T05:33:14.388Z,99773.22
2023-03-06T05:36:17.040Z,99748.44
2023-03-06T05:39:19.366Z,99773.75
2023-03-06T05:42:22.063Z,99749.28
2023-03-06T05:45:24.389Z,99768.25
2023-03-06T05:48:27.157Z,99763.84
2023-03-06T05:51:30.018Z,99773.75
2023-03-06T05:54:34.734Z,99776.50
2023-03-06T05:57:37.113Z,99777.06
2023-03-06T06:00:39.682Z,99773.75
2023-03-06T06:03:42.942Z,99781.47
2023-03-06T06:06:45.239Z,99775.97
2023-03-06T06:09:47.953Z,99776.25
2023-03-06T06:12:50.353Z,99783.41
2023-03-06T06:15:53.316Z,99783.94
2023-03-06T06:18:57.431Z,99782.56
2023-03-06T06:22:02.577Z,99782.28
2023-03-06T06:25:06.424Z,99790.78
2023-03-06T06:28:09.005Z,99788.00
2023-03-06T06:31:13.061Z,99781.09
2023-03-06T06:34:15.865Z,99778.34
2023-03-06T06:37:18.193Z,99797.31
2023-03-06T06:40:23.633Z,99802.00
2023-03-06T06:43:26.013Z,99803.37
2023-03-06T06:47:02.694Z,99801.47
2023-03-06T06:49:53.141Z,99794.84
2023-03-06T06:52:55.768Z,99794.56
2023-03-06T06:55:59.360Z,99795.41
2023-03-06T06:59:15.655Z,99780.81
2023-03-06T07:02:18.743Z,99792.41
2023-03-06T07:05:22.181Z,99768.19
2023-03-06T07:08:24.720Z,99791.34
2023-03-06T07:11:27.400Z,99773.16
2023-03-06T07:14:29.901Z,99797.16
2023-03-06T07:17:32.699Z,99796.56
2023-03-06T07:20:36.175Z,99809.50
2023-03-06T07:23:38.794Z,99806.75
2023-03-06T07:26:41.125Z,99811.72
2023-03-06T07:29:44.431Z,99801.25
2023-03-06T07:32:46.828Z,99813.09
2023-03-06T07:35:49.591Z,99819.41
2023-03-06T07:38:52.070Z,99806.50
2023-03-06T07:41:55.020Z,99811.44
2023-03-06T07:44:57.466Z,99813.66
2023-03-06T07:48:04.952Z,99809.53
2023-03-06T07:51:13.806Z,99816.13
2023-03-06T07:54:16.601Z,99801.00
2023-03-06T07:57:19.009Z,99827.19
2023-03-06T08:00:22.090Z,99825.50
2023-03-06T08:03:25.932Z,99823.84
2023-03-06T08:06:28.573Z,99826.31
2023-03-06T08:09:31.291Z,99811.44
2023-03-06T08:12:33.673Z,99835.97
2023-03-06T08:15:36.438Z,99833.75
2023-03-06T08:18:40.019Z,99807.59
2023-03-06T08:21:42.920Z,99828.53
2023-03-06T08:24:45.453Z,99830.44
2023-03-06T08:27:48.213Z,99829.34
2023-03-06T08:30:50.655Z,99827.97
2023-03-06T08:33:54.617Z,99820.00
2023-03-06T08:36:57.028Z,99830.22
2023-03-06T08:39:59.729Z,99825.22
2023-03-06T08:43:02.093Z,99801.00
2023-03-06T08:46:05.040Z,99828.81
2023-03-06T08:49:07.756Z,99831.56
2023-03-06T08:52:11.239Z,99823.31
2023-03-06T08:55:15.137Z,99827.75
2023-03-06T08:58:17.967Z,99824.97
2023-03-06T09:01:23.163Z,99802.91
2023-03-06T09:04:25.991Z,99804.00
2023-03-06T09:07:29.648Z,99821.06
2023-03-06T09:10:32.708Z,99803.72
2023-03-06T09:13:35.492Z,99801.19
2023-03-06T09:16:38.371Z,99782.69
2023-03-06T09:19:40.780Z,99793.94
2023-03-06T09:22:45.525Z,99787.84
2023-03-06T09:25:55.916Z,99798.03
2023-03-06T09:28:58.549Z,99784.31
2023-03-06T09:32:01.015Z,99789.00
2023-03-06T09:35:04.001Z,99783.72
2023-03-06T09:38:07.416Z,99772.66
2023-03-06T09:41:19.205Z,99783.19
2023-03-06T09:44:26.108Z,99779.63
2023-03-06T09:48:01.826Z,99775.19
2023-03-06T09:51:13.953Z,99774.53
2023-03-06T09:54:16.987Z,99773.41
2023-03-06T09:57:24.549Z,99766.75
2023-03-06T10:00:38.783Z,99773.41
2023-03-06T10:04:06.128Z,99769.12
2023-03-06T10:07:34.484Z,99767.56
2023-03-06T10:11:02.531Z,99767.78
2023-03-06T10:14:32.060Z,99769.94
2023-03-06T10:17:37.908Z,99761.00
2023-03-06T10:20:56.616Z,99755.53
2023-03-06T10:24:29.458Z,99743.84
2023-03-06T10:27:39.605Z,99746.22
2023-03-06T10:31:05.439Z,99766.22
2023-03-06T10:34:23.913Z,99757.25
2023-03-06T10:37:31.567Z,99742.59
2023-03-06T10:40:55.219Z,99754.94
2023-03-06T10:44:00.638Z,99742.59
2023-03-06T10:47:35.350Z,99738.09
2023-03-06T10:50:38.274Z,99732.53
2023-03-06T10:53:57.195Z,99721.28
2023-03-06T10:57:24.913Z,99719.91
2023-03-06T11:00:36.129Z,99713.53
2023-03-06T11:03:38.885Z,99703.53
2023-03-06T11:06:41.390Z,99700.03
2023-03-06T11:10:17.006Z,99694.69
2023-03-06T11:13:23.970Z,99689.78
2023-03-06T11:16:30.657Z,99680.06
2023-03-06T11:19:33.565Z,99672.09
2023-03-06T11:22:38.586Z,99662.25
2023-03-06T11:25:48.504Z,99644.94
2023-03-06T11:29:12.185Z,99651.47
2023-03-06T11:32:16.638Z,99649.63
2023-03-06T11:35:25.692Z,99633.63
2023-03-06T11:38:51.186Z,99605.34
2023-03-06T11:42:05.229Z,99622.25
2023-03-06T11:45:16.811Z,99617.88
2023-03-06T11:48:24.815Z,99609.94
2023-03-06T11:51:33.113Z,99604.31
2023-03-06T11:54:36.087Z,99597.91
2023-03-06T11:57:52.540Z,99594.19
2023-03-06T12:01:00.933Z,99586.53
2023-03-06T12:04:22.519Z,99558.31
2023-03-06T12:07:47.086Z,99567.59
2023-03-06T12:10:57.959Z,99567.91
2023-03-06T12:14:22.541Z,99568.59
2023-03-06T12:17:53.214Z,99540.28
2023-03-06T12:21:18.192Z,99547.34
2023-03-06T12:24:52.047Z,99555.59
2023-03-06T12:28:23.697Z,99545.06
2023-03-06T12:31:44.865Z,99554.41
2023-03-06T12:35:06.054Z,99547.81
2023-03-06T12:38:48.025Z,99549.03
2023-03-06T12:42:22.862Z,99548.31
2023-03-06T12:45:37.196Z,99547.81
2023-03-06T12:48:41.966Z,99542.06
2023-03-06T12:51:46.066Z,99543.91
2023-03-06T12:54:48.993Z,99538.22
2023-03-06T12:57:52.765Z,99518.25
2023-03-06T13:01:16.662Z,99527.63
2023-03-06T13:04:25.299Z,99529.63
2023-03-06T13:07:33.888Z,99524.34
2023-03-06T13:10:39.889Z,99508.09
2023-03-06T13:13:44.982Z,99528.41
2023-03-06T13:16:47.886Z,99528.81
2023-03-06T13:20:13.021Z,99529.69
2023-03-06T13:23:34.008Z,99526.69
2023-03-06T13:26:36.488Z,99515.31
2023-03-06T13:29:39.307Z,99510.25
2023-03-06T13:32:41.774Z,99488.63
2023-03-06T13:35:51.736Z,99491.63
2023-03-06T13:39:11.273Z,99490.28
2023-03-06T13:42:29.829Z,99479.31
2023-03-06T13:45:43.349Z,99486.66
2023-03-06T13:48:46.348Z,99495.03
2023-03-06T13:51:51.897Z,99477.81
2023-03-06T13:55:13.095Z,99490.41
2023-03-06T13:58:15.415Z,99483.91
2023-03-06T14:01:20.839Z,99478.81
2023-03-06T14:04:58.704Z,99481.00
2023-03-06T14:08:15.914Z,99476.00
2023-03-06T14:11:21.480Z,99472.78
2023-03-06T14:14:34.068Z,99473.09
2023-03-06T14:17:39.251Z,99467.84
2023-03-06T14:20:59.070Z,99465.38
2023-03-06T14:24:04.159Z,99452.87
2023-03-06T14:27:06.736Z,99475.69
2023-03-06T14:30:14.737Z,99472.78
2023-03-06T14:33:34.965Z,99466.34
2023-03-06T14:36:48.988Z,99466.75
2023-03-06T14:39:51.972Z,99458.53
2023-03-06T14:43:21.689Z,99465.97
2023-03-06T14:46:24.161Z,99460.28
2023-03-06T14:49:27.182Z,99460.59
2023-03-06T14:52:29.855Z,99455.97
2023-03-06T14:55:35.216Z,99445.00
2023-03-06T14:58:58.256Z,99452.34
2023-03-06T15:02:04.454Z,99428.16
2023-03-06T15:05:18.647Z,99426.69
2023-03-06T15:08:29.944Z,99431.50
2023-03-06T15:12:20.042Z,99425.09
2023-03-06T15:15:29.055Z,99453.41
2023-03-06T15:18:39.827Z,99437.91
2023-03-06T15:21:48.462Z,99441.53
2023-03-06T15:24:51.132Z,99435.16
2023-03-06T15:27:55.630Z,99433.56
2023-03-06T15:31:10.465Z,99412.69
2023-03-06T15:34:13.311Z,99427.47
2023-03-06T15:37:26.650Z,99427.63
2023-03-06T15:40:31.829Z,99432.56
2023-03-06T15:43:39.430Z,99426.03
2023-03-06T15:46:42.474Z,99403.00
2023-03-06T15:49:44.988Z,99430.97
2023-03-06T15:52:48.779Z,99429.31
2023-03-06T15:55:52.597Z,99412.38
2023-03-06T15:58:56.693Z,99434.66
2023-03-06T16:02:04.626Z,99415.47
2023-03-06T16:05:17.566Z,99436.59
2023-03-06T16:08:19.907Z,99424.06
2023-03-06T16:11:35.444Z,99426.81
2023-03-06T16:14:47.325Z,99451.22
2023-03-06T16:17:50.318Z,99441.94
2023-03-06T16:20:52.722Z,99438.41
2023-03-06T16:23:55.415Z,99448.59
2023-03-06T16:27:00.588Z,99427.22
2023-03-06T16:30:04.767Z,99445.66
2023-03-06T16:33:10.100Z,99445.94
2023-03-06T16:36:14.756Z,99445.41
2023-03-06T16:39:22.653Z,99450.44
2023-03-06T16:42:25.416Z,99458.88
2023-03-06T16:45:27.823Z,99458.00
2023-03-06T16:48:30.571Z,99459.19
2023-03-06T16:51:33.610Z,99439.50
2023-03-06T16:54:36.345Z,99440.88
2023-03-06T16:57:38.741Z,99461.13
2023-03-06T17:00:41.695Z,99460.50
2023-03-06T17:03:45.108Z,99459.94
2023-03-06T17:06:47.993Z,99458.88
2023-03-06T17:09:50.370Z,99428.19
2023-03-06T17:12:54.108Z,99457.25
2023-03-06T17:15:56.953Z,99462.84
2023-03-06T17:19:00.935Z,99464.28
2023-03-06T17:22:03.418Z,99449.47
2023-03-06T17:25:07.716Z,99463.75
2023-03-06T17:28:10.816Z,99455.75
2023-03-06T17:31:14.218Z,99439.31
2023-03-06T17:34:16.640Z,99454.66
2023-03-06T17:37:19.979Z,99438.22
2023-03-06T17:40:22.411Z,99454.09
2023-03-06T17:43:25.141Z,99441.53
2023-03-06T17:46:27.758Z,99455.75
2023-03-06T17:49:30.967Z,99451.09
2023-03-06T17:52:33.780Z,99449.47
2023-03-06T17:55:38.514Z,99449.41
2023-03-06T17:58:41.278Z,99458.03
2023-03-06T18:01:45.057Z,99449.81
2023-03-06T18:04:47.872Z,99457.84
2023-03-06T18:07:50.291Z,99460.00
2023-03-06T18:10:59.162Z,99441.03
2023-03-06T18:14:05.019Z,99434.44
2023-03-06T18:17:08.215Z,99450.38
2023-03-06T18:20:11.233Z,99461.84
2023-03-06T18:23:14.227Z,99438.00
2023-03-06T18:26:18.677Z,99464.09
2023-03-06T18:29:21.444Z,99452.56
2023-03-06T18:32:24.041Z,99432.25
2023-03-06T18:35:26.831Z,99461.91
2023-03-06T18:38:29.290Z,99457.50
2023-03-06T18:41:32.528Z,99456.94
2023-03-06T18:44:35.050Z,99459.66
2023-03-06T18:47:37.695Z,99460.31
2023-03-06T18:50:40.003Z,99436.75
2023-03-06T18:53:43.568Z,99458.97
2023-03-06T18:56:45.933Z,99432.59
2023-03-06T18:59:48.668Z,99461.41
2023-03-06T19:02:51.021Z,99448.22
2023-03-06T19:05:53.734Z,99445.19
2023-03-06T19:09:01.466Z,99428.22
2023-03-06T19:12:04.743Z,99456.22
2023-03-06T19:15:07.764Z,99452.59
2023-03-06T19:18:15.228Z,99433.59
2023-03-06T19:21:22.696Z,99439.13
2023-03-06T19:24:25.703Z,99426.56
2023-03-06T19:27:28.029Z,99446.53
2023-03-06T19:30:30.806Z,99432.59
2023-03-06T19:33:36.019Z,99461.47
2023-03-06T19:36:40.630Z,99431.25
2023-03-06T19:39:43.573Z,99438.66
2023-03-06T19:42:46.684Z,99443.31
2023-03-06T19:45:49.066Z,99438.13
2023-03-06T19:48:59.705Z,99438.38
2023-03-06T19:52:02.104Z,99442.81
2023-03-06T19:55:06.015Z,99426.38
2023-03-06T19:58:08.508Z,99419.75
2023-03-06T20:01:18.544Z,99435.66
2023-03-06T20:04:21.494Z,99427.94
2023-03-06T20:07:24.323Z,99428.50
2023-03-06T20:10:27.060Z,99416.41
2023-03-06T20:13:29.745Z,99425.16
2023-03-06T20:16:33.456Z,99410.03
2023-03-06T20:19:35.819Z,99428.16
2023-03-06T20:22:38.537Z,99426.22
2023-03-06T20:25:41.054Z,99420.72
2023-03-06T20:28:43.842Z,99408.38
2023-03-06T20:31:46.169Z,99438.31
2023-03-06T20:34:48.919Z,99441.41
2023-03-06T20:37:51.286Z,99418.28
2023-03-06T20:40:56.069Z,99444.69
2023-03-06T20:44:00.158Z,99441.09
2023-03-06T20:47:02.817Z,99438.66
2023-03-06T20:50:05.703Z,99444.19
2023-03-06T20:53:08.379Z,99446.44
2023-03-06T20:56:16.039Z,99439.56
2023-03-06T20:59:18.947Z,99429.63
2023-03-06T21:02:21.389Z,99443.94
2023-03-06T21:05:24.023Z,99446.69
2023-03-06T21:08:26.506Z,99426.94
2023-03-06T21:11:29.834Z,99441.66
2023-03-06T21:14:32.218Z,99430.16
2023-03-06T21:17:34.905Z,99423.94
2023-03-06T21:20:41.573Z,99440.12
2023-03-06T21:23:44.927Z,99425.84
2023-03-06T21:26:48.131Z,99441.72
2023-03-06T21:29:50.800Z,99448.88
2023-03-06T21:32:53.633Z,99443.94
2023-03-06T21:35:56.451Z,99442.88
2023-03-06T21:38:58.868Z,99450.28
2023-03-06T21:42:01.540Z,99444.53
2023-03-06T21:45:05.233Z,99447.78
2023-03-06T21:48:08.838Z,99444.50
2023-03-06T21:51:15.783Z,99439.50
2023-03-06T21:54:18.910Z,99433.00
2023-03-06T21:57:21.308Z,99446.13
2023-03-06T22:00:25.732Z,99445.81
2023-03-06T22:03:31.163Z,99426.94
2023-03-06T22:06:33.472Z,99415.63
2023-03-06T22:09:37.351Z,99448.03
2023-03-06T22:12:39.941Z,99421.44
2023-03-06T22:15:52.865Z,99440.66
2023-03-06T22:18:55.569Z,99413.19
2023-03-06T22:21:58.303Z,99443.41
2023-03-06T22:25:00.697Z,99432.09
2023-03-06T22:28:03.329Z,99436.75
2023-03-06T22:31:07.093Z,99433.50
2023-03-06T22:34:10.104Z,99439.81
2023-03-06T22:37:12.539Z,99425.50
2023-03-06T22:40:15.338Z,99428.31
2023-03-06T22:43:20.060Z,99430.81
2023-03-06T22:46:23.557Z,99426.97
2023-03-06T22:49:25.932Z,99410.47
2023-03-06T22:52:28.584Z,99444.28
2023-03-06T22:55:31.018Z,99420.41
2023-03-06T22:58:37.087Z,99433.31
2023-03-06T23:01:39.624Z,99436.63
2023-03-06T23:04:42.469Z,99419.34
2023-03-06T23:07:44.981Z,99447.88
2023-03-06T23:10:47.137Z,99433.00
2023-03-06T23:14:08.206Z,99429.63
2023-03-06T23:17:28.855Z,99425.81
2023-03-06T23:20:49.691Z,99443.06
2023-03-06T23:24:10.534Z,99432.91
2023-03-06T23:27:15.325Z,99412.31
2023-03-06T23:30:17.795Z,99443.31
2023-03-06T23:33:20.694Z,99438.91
2023-03-06T23:36:23.278Z,99431.81
2023-03-06T23:39:25.984Z,99443.91
2023-03-06T23:42:28.412Z,99420.03
2023-03-06T23:45:31.607Z,99439.81
2023-03-06T23:48:35.657Z,99421.50
2023-03-06T23:51:38.328Z,99442.63
2023-03-06T23:54:40.771Z,99445.63
2023-03-06T23:57:43.589Z,99441.84
